Historyczne dane pomiarowe

Dodano dane terminowe – wersja testowa.

Dane z okresu 1951-2019

Wersja bazy: 1.34 [2019-03-16, lista zmian], aktualizacja planowana na 2019-04-15

Dane meteo z obszaru Polski uzyskane na podstawie danych udostępnionych przez Instytut Meteorologii i Gospodarki Wodnej – Państwowy Instytut Badawczy.

 

Wybierz Datę:    

       

TemperaturaWilgotnośćWiatrCiśnienieOpadyŚniegCzas trwania zjawisk
 Stacja t tx tn tng RH VA  wxwx mslp ppp RRR   cm mm wxwxwxwxwxwxwx
1983-01-17 -0.5 1.6 -3.1--- 7.7 6.7---- 0.9-- 3---------
1983-01-18 1.9 4.2 -0.1--- 8.0 14.0---- 2.9------------
1983-01-19 -1.8 0.0 -3.4--- 8.0 24.0---- 3.3-- 2---------
1983-01-20 -4.6 -3.2 -5.1--- 8.0 11.0---- 3.0-- 5---------
1983-01-21 -3.7 -1.0 -5.9--- 8.0 14.3---- 4.6-- 8---------
1983-01-22 1.6 3.4 -1.6--- 7.0 11.0---- 0.5-- 5---------
1983-01-23 2.0 3.0 1.1--- 7.0 20.3---- 0.0------------
1983-01-24 -1.6 1.2 -2.1--- 7.3 2.7---- 0.0------------
1983-01-25 -1.8 1.0 -1.9--- 5.7 7.7---- 0.5------------
1983-01-26 -0.4 2.2 -1.7--- 6.0 8.3---- 0.0------------
1983-01-27 0.2 2.4 -1.8--- 4.7 14.3---- 0.0------------
1983-01-28 3.7 6.5 1.4--- 4.0 15.7---- 0.0------------
1983-01-29 4.2 6.3 2.5--- 8.0 7.7---- 6.9------------
1983-01-30 4.2 7.0 2.0--- 5.7 5.0---- 0.0------------
1983-01-31 2.8 5.1 0.6--- 4.0 2.7---- 0.0------------
1983-02-01 0.2 2.8 -1.9--- 6.3 10.3---- 0.2------------
1983-02-02 2.0 3.3 -0.1--- 4.3 17.7---- 0.1------------
1983-02-03 -3.2 0.0 -3.9--- 3.3 10.0---- 0.4------------
1983-02-04 -2.8 -2.0 -3.1--- 5.3 7.7---- 0.5------------
1983-02-05 -3.6 -2.5 -4.1--- 3.3 4.3---- 0.0------------
1983-02-06 -4.8 -3.7 -5.4--- 6.3 7.7---- 0.0------------
1983-02-07 -4.2 -2.6 -5.9--- 7.0 9.0---- 2.5------------
1983-02-08 -3.6 -2.1 -4.9--- 7.7 5.3---- 1.0-- 8---------
1983-02-09 -3.0 -2.0 -3.9--- 5.3 4.3---- 0.0-- 10---------
1983-02-10 -2.4 0.2 -3.9--- 6.3 6.7---- 0.0-- 10---------
1983-02-11 -0.4 1.0 -1.5--- 4.3 4.3---- 0.4-- 10---------
1983-02-12 -0.8 0.0 -2.4--- 8.0 8.3---- 4.6-- 5---------
1983-02-13 -5.9 -2.0 -9.0--- 8.0 7.7---- 3.6-- 6---------
1983-02-14-10.9 -8.8-13.5--- 6.3 7.7---- 0.1-- 10---------
1983-02-15-13.9-12.5-14.9--- 4.3 5.0---- 0.0-- 10---------
368.0 ms

 

Źródłem pochodzenia danych jest Instytut Meteorologii i Gospodarki Wodnej – Państwowy Instytut Badawczy. Dane Instytutu Meteorologii i Gospodarki Wodnej – Państwowego Instytutu Badawczego zostały przetworzone.

Dane źródłowe można odnaleźć na stronie https://dane.imgw.pl